Погода Заббарна неделю

Аура, Мальта

13 - 19 июля
  • 13июля
    Сегодня
    +24°
    +34°
    Ясно и безоблачно
    ВремяПогодаТемператураВлажностьДавлениеВетер, м/сВероятность осадков
    02:00Ясно и безоблачно+26°C83 %757 мм1.9 м/с1 %
    05:00Ясно и безоблачно+25°C89 %756 мм2.3 м/с1 %
    08:00Ясно и безоблачно+29°C73 %757 мм2.7 м/с1 %
    11:00Ясно и безоблачно+33°C43 %757 мм3.6 м/с1 %
    14:00Ясно и безоблачно+34°C44 %756 мм4.3 м/с1 %
    17:00Ясно и безоблачно+34°C42 %756 мм3.9 м/с1 %
    20:00Ясно и безоблачно+30°C51 %756 мм3.6 м/с1 %
    23:00Ясно и безоблачно+27°C73 %756 мм2.3 м/с1 %
  • 14июля
    Воскресенье
    +25°
    +35°
    Ясно и безоблачно
    ВремяПогодаТемператураВлажностьДавлениеВетер, м/сВероятность осадков
    02:00Ясно и безоблачно+25°C82 %756 мм2.0 м/с1 %
    05:00Ясно и безоблачно+25°C92 %756 мм2.1 м/с1 %
    08:00Ясно и безоблачно+29°C77 %757 мм2.3 м/с1 %
    11:00Ясно и безоблачно+33°C50 %757 мм3.7 м/с1 %
    14:00Ясно и безоблачно+35°C47 %757 мм5.0 м/с1 %
    17:00Ясно и безоблачно+34°C41 %756 мм4.8 м/с1 %
    20:00Ясно и безоблачно+30°C56 %756 мм3.4 м/с1 %
    23:00Ясно и безоблачно+28°C73 %756 мм2.1 м/с1 %
  • 15июля
    Понедельник
    +25°
    +35°
    Ясно и безоблачно
    ВремяПогодаТемператураВлажностьДавлениеВетер, м/сВероятность осадков
    02:00Ясно и безоблачно+26°C81 %756 мм2.1 м/с1 %
    05:00Ясно и безоблачно+26°C90 %756 мм2.5 м/с1 %
    08:00Ясно и безоблачно+30°C75 %756 мм2.8 м/с1 %
    11:00Ясно и безоблачно+34°C50 %757 мм3.6 м/с1 %
    14:00Ясно и безоблачно+34°C47 %757 мм3.6 м/с1 %
    17:00Ясно и безоблачно+34°C48 %756 мм3.6 м/с1 %
    20:00Ясно и безоблачно+30°C61 %756 мм3.4 м/с1 %
    23:00Ясно и безоблачно+28°C73 %757 мм2.6 м/с1 %
  • 16июля
    Вторник
    +25°
    +36°
    Ясно и безоблачно
    ВремяПогодаТемператураВлажностьДавлениеВетер, м/сВероятность осадков
    02:00Ясно и безоблачно+26°C82 %756 мм2.3 м/с1 %
    05:00Ясно и безоблачно+25°C92 %756 мм2.0 м/с1 %
    08:00Ясно и безоблачно+30°C78 %757 мм2.0 м/с1 %
    11:00Ясно и безоблачно+34°C48 %757 мм3.6 м/с1 %
    14:00Ясно и безоблачно+35°C47 %757 мм3.9 м/с1 %
    17:00Ясно и безоблачно+34°C44 %756 мм4.2 м/с1 %
    20:00Ясно и безоблачно+30°C67 %756 мм4.1 м/с1 %
    23:00Ясно и безоблачно+27°C75 %757 мм2.9 м/с1 %
  • 17июля
    Среда
    +25°
    +35°
    Ясно и безоблачно
    ВремяПогодаТемператураВлажностьДавлениеВетер, м/сВероятность осадков
    02:00Ясно и безоблачно+26°C82 %756 мм2.5 м/с1 %
    05:00Ясно и безоблачно+25°C90 %756 мм2.1 м/с1 %
    08:00Ясно и безоблачно+29°C82 %757 мм1.5 м/с1 %
    11:00Ясно и безоблачно+33°C49 %758 мм3.5 м/с1 %
    14:00Ясно и безоблачно+34°C36 %758 мм4.2 м/с1 %
    17:00Ясно и безоблачно+34°C38 %757 мм3.3 м/с1 %
    20:00Ясно и безоблачно+30°C58 %757 мм2.9 м/с1 %
    23:00Ясно и безоблачно+28°C78 %758 мм2.4 м/с1 %
Мы используем cookies
Соглашаюсь